Time;durP1;ratioP1;P1;durP2;ratioP2;P2;SDS_P1;SDS_P2;PMS_P1;PMS_P2;Temp;Humidity;BMP_temperature;BMP_pressure;BME280_temperature;BME280_humidity;BME280_pressure;Samples;Min_cycle;Max_cycle;Signal;HPM_P1;HPM_P2
2023/07/09 00:01:49;;;;;;;10.73;7.20;;;24.50;55.80;;;;;;5029555;28;20054;-79
2023/07/09 00:04:17;;;;;;;9.85;6.95;;;24.50;56.00;;;;;;5030112;28;20411;-79
2023/07/09 00:06:44;;;;;;;10.38;6.75;;;24.40;56.20;;;;;;5011303;28;20038;-79
2023/07/09 00:09:14;;;;;;;10.23;7.07;;;24.40;56.20;;;;;;5012938;28;20053;-79
2023/07/09 00:11:42;;;;;;;9.77;7.15;;;24.40;56.20;;;;;;5011546;28;20121;-79
2023/07/09 00:14:11;;;;;;;11.17;7.17;;;24.40;56.20;;;;;;5029734;28;20501;-79
2023/07/09 00:16:39;;;;;;;10.13;7.05;;;24.30;56.40;;;;;;5030869;28;20264;-78
2023/07/09 00:19:13;;;;;;;10.30;7.00;;;24.20;56.40;;;;;;5029361;28;20181;-79
2023/07/09 00:21:40;;;;;;;9.82;6.32;;;24.20;56.40;;;;;;5028976;28;20050;-79
2023/07/09 00:24:10;;;;;;;10.40;7.05;;;24.20;56.40;;;;;;5027738;28;20348;-79
2023/07/09 00:26:40;;;;;;;9.83;6.93;;;24.10;56.40;;;;;;5028491;28;20375;-79
2023/07/09 00:29:11;;;;;;;11.60;7.45;;;24.10;56.40;;;;;;5028937;28;20328;-79
2023/07/09 00:31:38;;;;;;;9.45;7.57;;;24.00;56.50;;;;;;5010770;28;20054;-78
2023/07/09 00:34:05;;;;;;;11.30;7.22;;;24.00;56.70;;;;;;5028562;28;20060;-78
2023/07/09 00:36:33;;;;;;;10.43;6.90;;;24.00;56.90;;;;;;5028801;28;20061;-79
2023/07/09 00:39:04;;;;;;;8.33;6.63;;;23.90;57.60;;;;;;5033720;28;20089;-79
2023/07/09 00:41:34;;;;;;;10.13;6.65;;;23.90;58.00;;;;;;5026557;28;20262;-78
2023/07/09 00:44:33;;;;;;;13.65;7.20;;;23.80;58.00;;;;;;5043724;28;20504;-79
2023/07/09 00:47:24;;;;;;;13.32;6.93;;;23.80;57.10;;;;;;5008323;28;20054;-79
2023/07/09 00:50:16;;;;;;;14.88;6.97;;;23.80;56.90;;;;;;5027728;28;20049;-79
2023/07/09 00:52:50;;;;;;;9.80;6.67;;;23.70;57.10;;;;;;5028521;28;20057;-79
2023/07/09 00:55:23;;;;;;;10.90;7.10;;;23.60;57.70;;;;;;5029868;28;20352;-79
2023/07/09 00:57:56;;;;;;;10.27;6.80;;;23.60;57.90;;;;;;5028669;28;20046;-78
2023/07/09 01:00:29;;;;;;;12.15;7.18;;;23.60;58.00;;;;;;5029338;28;20058;-79
2023/07/09 01:02:57;;;;;;;11.55;7.38;;;23.50;58.10;;;;;;5028868;28;20080;-79
2023/07/09 01:05:25;;;;;;;11.20;7.60;;;23.50;58.20;;;;;;5028954;28;20125;-78
2023/07/09 01:07:53;;;;;;;10.90;7.47;;;23.40;58.00;;;;;;5028968;28;20260;-78
2023/07/09 01:10:20;;;;;;;10.15;7.65;;;23.40;58.10;;;;;;5026667;28;20046;-79
2023/07/09 01:12:49;;;;;;;12.98;8.07;;;23.30;58.20;;;;;;5030088;28;20078;-79
2023/07/09 01:15:16;;;;;;;10.63;6.85;;;23.30;58.20;;;;;;5012365;28;20508;-79
2023/07/09 01:17:45;;;;;;;11.13;7.33;;;23.20;58.10;;;;;;5028366;28;20120;-79
2023/07/09 01:20:20;;;;;;;10.82;7.93;;;23.20;58.20;;;;;;5011727;28;20286;-79
2023/07/09 01:22:51;;;;;;;11.13;7.30;;;23.20;58.20;;;;;;5028192;28;20188;-78
2023/07/09 01:25:18;;;;;;;11.10;7.57;;;23.10;58.30;;;;;;5028484;28;20042;-78
2023/07/09 01:27:47;;;;;;;11.13;8.13;;;23.10;58.40;;;;;;5044986;28;20124;-78
2023/07/09 01:30:22;;;;;;;11.80;7.70;;;23.10;58.60;;;;;;5010816;28;20484;-79
2023/07/09 01:32:50;;;;;;;10.55;7.15;;;23.00;58.50;;;;;;5028004;28;20276;-78
2023/07/09 01:35:18;;;;;;;9.80;7.40;;;23.00;58.40;;;;;;5026263;28;20093;-79
2023/07/09 01:37:47;;;;;;;11.07;7.38;;;23.00;58.40;;;;;;5028035;28;20046;-79
2023/07/09 01:40:17;;;;;;;9.68;7.13;;;22.90;58.20;;;;;;5011769;28;20436;-78
2023/07/09 01:42:44;;;;;;;11.90;8.17;;;22.90;58.20;;;;;;5028445;28;20102;-79
2023/07/09 01:45:12;;;;;;;12.15;7.90;;;22.90;58.20;;;;;;5027934;28;20752;-78
2023/07/09 01:47:40;;;;;;;10.45;7.60;;;22.80;58.30;;;;;;5028321;28;20038;-79
2023/07/09 01:50:09;;;;;;;10.93;7.70;;;22.70;58.50;;;;;;5010637;28;20081;-78
2023/07/09 01:52:38;;;;;;;12.57;7.80;;;22.70;58.70;;;;;;5027024;28;20524;-78
2023/07/09 01:55:07;;;;;;;11.90;8.00;;;22.60;58.70;;;;;;5028083;28;20145;-78
2023/07/09 01:57:35;;;;;;;11.25;7.70;;;22.60;58.60;;;;;;5027731;28;20311;-78
2023/07/09 02:00:06;;;;;;;10.52;7.72;;;22.50;58.70;;;;;;5011396;28;20504;-78
2023/07/09 02:02:42;;;;;;;11.93;7.55;;;22.50;58.80;;;;;;5029128;28;20050;-79
2023/07/09 02:05:12;;;;;;;11.52;7.65;;;22.50;58.90;;;;;;5012464;28;20515;-79
2023/07/09 02:07:39;;;;;;;10.10;7.33;;;22.50;59.00;;;;;;5025177;28;20166;-78
2023/07/09 02:10:06;;;;;;;10.90;8.18;;;22.50;59.00;;;;;;5007787;28;20327;-79
2023/07/09 02:12:35;;;;;;;10.13;7.90;;;22.40;59.10;;;;;;5027759;28;20592;-78
2023/07/09 02:15:02;;;;;;;10.65;7.95;;;22.30;59.10;;;;;;5027900;28;20141;-79
2023/07/09 02:17:29;;;;;;;11.75;7.72;;;22.30;59.00;;;;;;5027873;28;20048;-79
2023/07/09 02:19:56;;;;;;;10.97;7.90;;;22.30;59.00;;;;;;5027384;28;20052;-79
2023/07/09 02:22:23;;;;;;;11.15;7.85;;;22.20;59.00;;;;;;5027721;28;20343;-78
2023/07/09 02:24:52;;;;;;;10.43;7.22;;;22.20;59.00;;;;;;5011027;28;20054;-78
2023/07/09 02:27:21;;;;;;;12.35;8.13;;;22.20;59.00;;;;;;5006755;28;20420;-78
2023/07/09 02:29:49;;;;;;;10.95;7.82;;;22.10;59.00;;;;;;5011079;28;20054;-78
2023/07/09 02:32:19;;;;;;;11.40;7.67;;;22.10;59.20;;;;;;5044025;28;20058;-78
2023/07/09 02:34:48;;;;;;;10.77;7.53;;;22.10;59.10;;;;;;5027804;28;20257;-79
2023/07/09 02:37:17;;;;;;;11.73;7.65;;;22.00;58.90;;;;;;5020954;28;20046;-79
2023/07/09 02:39:45;;;;;;;11.05;7.25;;;22.00;59.00;;;;;;5027388;28;20184;-79
2023/07/09 02:42:13;;;;;;;11.52;7.85;;;22.00;59.00;;;;;;5027003;28;20053;-78
2023/07/09 02:44:42;;;;;;;11.53;8.00;;;22.00;59.20;;;;;;5010166;28;20093;-78
2023/07/09 02:47:11;;;;;;;11.50;7.88;;;21.90;59.30;;;;;;5024187;28;20736;-78
2023/07/09 02:49:39;;;;;;;11.32;7.88;;;21.90;59.40;;;;;;5029678;28;20050;-78
2023/07/09 02:52:07;;;;;;;12.50;7.72;;;21.90;59.50;;;;;;5030794;28;20052;-79
2023/07/09 02:54:34;;;;;;;10.35;7.43;;;21.80;59.60;;;;;;5030563;28;20056;-78
2023/07/09 02:57:01;;;;;;;12.73;7.30;;;21.70;59.70;;;;;;5030612;28;20066;-78
2023/07/09 02:59:29;;;;;;;11.57;7.80;;;21.70;59.60;;;;;;5047293;28;20344;-78
2023/07/09 03:01:56;;;;;;;11.25;8.10;;;21.70;59.50;;;;;;5029407;28;20058;-79
2023/07/09 03:04:25;;;;;;;12.07;7.10;;;21.70;59.40;;;;;;5014006;28;20153;-78
2023/07/09 03:06:52;;;;;;;10.77;7.50;;;21.70;59.30;;;;;;5031673;28;20126;-78
2023/07/09 03:09:19;;;;;;;11.50;7.57;;;21.70;59.40;;;;;;5014015;28;20156;-78
2023/07/09 03:11:46;;;;;;;11.13;7.55;;;21.70;59.60;;;;;;5011612;28;20245;-78
2023/07/09 03:14:13;;;;;;;12.23;7.50;;;21.70;59.60;;;;;;5013807;28;20504;-78
2023/07/09 03:16:40;;;;;;;9.85;6.90;;;21.70;59.80;;;;;;5047220;28;20046;-79
2023/07/09 03:19:07;;;;;;;11.45;7.85;;;21.60;59.80;;;;;;5030195;28;20182;-78
2023/07/09 03:21:35;;;;;;;11.07;7.97;;;21.60;59.80;;;;;;5029823;28;20072;-79
2023/07/09 03:24:03;;;;;;;12.70;8.15;;;21.60;60.00;;;;;;5010678;28;20262;-78
2023/07/09 03:26:30;;;;;;;10.73;7.70;;;21.60;60.00;;;;;;5016991;28;20055;-79
2023/07/09 03:28:57;;;;;;;10.38;7.60;;;21.50;60.00;;;;;;5010352;28;20520;-79
2023/07/09 03:31:24;;;;;;;12.68;8.27;;;21.50;60.00;;;;;;5028274;28;20683;-78
2023/07/09 03:33:52;;;;;;;11.60;7.93;;;21.50;60.00;;;;;;5029774;28;20576;-79
2023/07/09 03:36:19;;;;;;;10.93;7.32;;;21.50;60.00;;;;;;5028852;28;20703;-78
2023/07/09 03:38:48;;;;;;;10.35;7.72;;;21.50;60.40;;;;;;5029791;28;20108;-79
2023/07/09 03:41:15;;;;;;;13.20;8.02;;;21.50;60.70;;;;;;5029614;28;20587;-78
2023/07/09 03:43:42;;;;;;;12.25;7.85;;;21.40;60.40;;;;;;5030193;28;20148;-78
2023/07/09 03:46:09;;;;;;;8.60;6.90;;;21.40;60.20;;;;;;5012349;28;20053;-78
2023/07/09 03:48:35;;;;;;;9.85;7.32;;;21.40;60.30;;;;;;5031472;28;20273;-79
2023/07/09 03:51:02;;;;;;;10.15;7.03;;;21.40;60.40;;;;;;5028211;28;20540;-78
2023/07/09 03:53:29;;;;;;;12.18;7.88;;;21.30;60.50;;;;;;5030051;28;20698;-79
2023/07/09 03:55:59;;;;;;;10.13;7.03;;;21.30;60.60;;;;;;5029666;28;20050;-78
2023/07/09 03:58:26;;;;;;;10.47;7.80;;;21.30;60.80;;;;;;5029047;28;20046;-78
2023/07/09 04:00:54;;;;;;;11.77;7.70;;;21.30;61.10;;;;;;5029353;28;20261;-79
2023/07/09 04:03:21;;;;;;;10.02;7.18;;;21.30;61.10;;;;;;5029822;28;20487;-78
2023/07/09 04:05:48;;;;;;;11.10;7.43;;;21.30;61.10;;;;;;5029764;28;20057;-79
2023/07/09 04:08:16;;;;;;;9.85;7.53;;;21.20;61.40;;;;;;5029873;28;20080;-79
2023/07/09 04:10:42;;;;;;;12.10;8.17;;;21.20;61.50;;;;;;5012233;28;20662;-79
2023/07/09 04:13:11;;;;;;;12.45;7.65;;;21.20;61.50;;;;;;5028750;28;20345;-78
2023/07/09 04:15:38;;;;;;;9.88;7.43;;;21.20;61.70;;;;;;5029517;28;20058;-78
2023/07/09 04:18:05;;;;;;;11.52;8.15;;;21.10;62.00;;;;;;5030980;28;20123;-78
2023/07/09 04:20:31;;;;;;;11.82;7.70;;;21.10;62.30;;;;;;5029303;28;20069;-78
2023/07/09 04:22:58;;;;;;;12.60;7.43;;;21.10;62.50;;;;;;5029658;28;20058;-78
2023/07/09 04:25:25;;;;;;;11.43;7.63;;;21.10;62.90;;;;;;5029271;28;20257;-80
2023/07/09 04:27:52;;;;;;;12.45;8.15;;;21.10;63.00;;;;;;5028097;28;20464;-79
2023/07/09 04:30:21;;;;;;;11.88;7.38;;;21.10;62.90;;;;;;5007248;28;20588;-79
2023/07/09 04:32:48;;;;;;;12.25;7.45;;;21.10;62.80;;;;;;5029108;28;20106;-79
2023/07/09 04:35:15;;;;;;;11.77;7.90;;;21.10;62.60;;;;;;5030386;28;20558;-79
2023/07/09 04:37:43;;;;;;;12.57;8.00;;;21.10;62.80;;;;;;5027603;28;20296;-79
2023/07/09 04:40:12;;;;;;;12.20;8.90;;;21.10;63.20;;;;;;5028761;28;20128;-79
2023/07/09 04:42:40;;;;;;;12.07;8.13;;;21.10;63.60;;;;;;5029322;28;20082;-79
2023/07/09 04:45:09;;;;;;;11.70;8.00;;;21.10;63.70;;;;;;5028297;28;20546;-80
2023/07/09 04:47:39;;;;;;;11.43;8.13;;;21.10;63.60;;;;;;5027493;28;20058;-79
2023/07/09 04:50:14;;;;;;;11.05;7.28;;;21.10;63.30;;;;;;5020615;28;20281;-79
2023/07/09 04:52:40;;;;;;;11.70;7.80;;;21.10;63.20;;;;;;5026760;28;20524;-79
2023/07/09 04:55:08;;;;;;;10.32;7.10;;;21.10;62.90;;;;;;5028176;28;20050;-77
2023/07/09 04:57:35;;;;;;;9.15;5.45;;;21.10;62.70;;;;;;5027541;28;20082;-77
2023/07/09 05:00:04;;;;;;;8.00;5.43;;;21.10;63.00;;;;;;5024557;28;20428;-77
2023/07/09 05:02:31;;;;;;;9.82;7.30;;;21.10;63.30;;;;;;5025580;28;20336;-77
2023/07/09 05:04:59;;;;;;;9.43;6.15;;;21.10;63.80;;;;;;5025136;28;20077;-77
2023/07/09 05:07:27;;;;;;;9.48;7.00;;;21.10;64.00;;;;;;5023286;28;20052;-78
2023/07/09 05:09:54;;;;;;;11.07;7.90;;;21.10;64.00;;;;;;5025131;28;20089;-78
2023/07/09 05:12:21;;;;;;;9.53;7.17;;;21.10;64.20;;;;;;5027691;28;20056;-77
2023/07/09 05:14:48;;;;;;;11.60;7.82;;;21.10;64.50;;;;;;5025958;28;20258;-77
2023/07/09 05:17:15;;;;;;;10.73;7.25;;;21.10;64.40;;;;;;5027853;28;20058;-77
2023/07/09 05:19:42;;;;;;;11.10;7.75;;;21.10;64.60;;;;;;5026214;28;20056;-77
2023/07/09 05:22:10;;;;;;;9.32;7.07;;;21.20;64.40;;;;;;5027202;28;20106;-77
2023/07/09 05:24:37;;;;;;;11.47;7.20;;;21.20;64.60;;;;;;5029226;28;20050;-78
2023/07/09 05:27:05;;;;;;;10.32;7.25;;;21.30;64.60;;;;;;5023409;28;20749;-78
2023/07/09 05:29:32;;;;;;;12.25;7.80;;;21.30;64.70;;;;;;5018300;28;20051;-77
2023/07/09 05:31:59;;;;;;;11.02;6.95;;;21.30;64.70;;;;;;5029106;28;20131;-77
2023/07/09 05:34:25;;;;;;;13.43;8.65;;;21.40;64.90;;;;;;5027836;28;20057;-76
2023/07/09 05:36:53;;;;;;;10.30;7.53;;;21.40;64.90;;;;;;5027751;28;20057;-77
2023/07/09 05:39:21;;;;;;;12.32;7.50;;;21.40;64.80;;;;;;5027142;28;20261;-77
2023/07/09 05:41:48;;;;;;;11.98;7.70;;;21.50;65.00;;;;;;5026761;28;20058;-76
2023/07/09 05:44:15;;;;;;;12.90;7.95;;;21.50;64.90;;;;;;5029056;28;20129;-76
2023/07/09 05:46:42;;;;;;;12.90;9.00;;;21.50;65.00;;;;;;5027972;28;20045;-77
2023/07/09 05:49:08;;;;;;;11.47;7.60;;;21.60;65.00;;;;;;5026390;28;20534;-77
2023/07/09 05:51:35;;;;;;;10.45;7.97;;;21.70;65.00;;;;;;5028101;28;20855;-78
2023/07/09 05:54:02;;;;;;;11.63;8.52;;;21.70;64.80;;;;;;5028248;28;20076;-78
2023/07/09 05:56:31;;;;;;;11.77;8.20;;;21.70;64.90;;;;;;5027797;28;20514;-77
2023/07/09 05:58:58;;;;;;;13.63;9.15;;;21.70;65.00;;;;;;5027386;28;20081;-77
2023/07/09 06:01:26;;;;;;;12.77;8.37;;;21.80;65.00;;;;;;5024669;28;20050;-78
2023/07/09 06:03:54;;;;;;;14.93;9.25;;;21.90;65.00;;;;;;5027402;28;20340;-77
2023/07/09 06:06:21;;;;;;;14.98;10.05;;;21.90;65.00;;;;;;5025944;28;20046;-83
2023/07/09 06:08:50;;;;;;;15.75;9.90;;;21.90;65.20;;;;;;5026116;28;20157;-74
2023/07/09 06:11:17;;;;;;;14.40;8.18;;;21.90;65.30;;;;;;5025516;28;20564;-75
2023/07/09 06:13:48;;;;;;;15.53;10.80;;;21.90;65.30;;;;;;5026849;28;20061;-75
2023/07/09 06:16:15;;;;;;;15.43;10.50;;;22.00;65.30;;;;;;5044181;28;20280;-75
2023/07/09 06:18:41;;;;;;;18.60;11.38;;;22.00;65.30;;;;;;5010257;28;20053;-75
2023/07/09 06:21:11;;;;;;;18.90;11.23;;;22.10;65.40;;;;;;5027179;28;20093;-75
2023/07/09 06:23:38;;;;;;;16.98;11.50;;;22.10;65.30;;;;;;5031615;28;20164;-76
2023/07/09 06:26:05;;;;;;;17.13;10.47;;;22.10;65.40;;;;;;5030114;28;20050;-76
2023/07/09 06:28:32;;;;;;;17.38;10.50;;;22.20;65.40;;;;;;5031529;28;20268;-77
2023/07/09 06:31:01;;;;;;;15.90;11.68;;;22.20;65.50;;;;;;5028644;28;20057;-78
2023/07/09 06:33:29;;;;;;;15.63;10.90;;;22.30;65.60;;;;;;5024808;28;20061;-75
2023/07/09 06:35:58;;;;;;;14.98;10.30;;;22.30;65.60;;;;;;5029953;28;20714;-76
2023/07/09 06:38:26;;;;;;;13.27;9.53;;;22.30;65.60;;;;;;5030874;28;20515;-76
2023/07/09 06:40:54;;;;;;;15.82;10.73;;;22.40;65.70;;;;;;5029375;28;20751;-76
2023/07/09 06:43:21;;;;;;;15.40;10.63;;;22.50;65.80;;;;;;5031691;28;20112;-76
2023/07/09 06:45:50;;;;;;;14.77;10.05;;;22.50;65.90;;;;;;5011557;28;20042;-77
2023/07/09 06:48:19;;;;;;;14.23;9.57;;;22.50;66.00;;;;;;5032021;28;20053;-78
2023/07/09 06:50:46;;;;;;;13.80;9.77;;;22.60;66.20;;;;;;5031366;28;20053;-77
2023/07/09 06:53:13;;;;;;;13.82;10.15;;;22.60;66.20;;;;;;5030302;28;20273;-78
2023/07/09 06:55:41;;;;;;;16.25;10.50;;;22.70;66.20;;;;;;5028111;28;20049;-78
2023/07/09 06:58:08;;;;;;;16.30;10.35;;;22.70;66.20;;;;;;5030115;28;20050;-76
2023/07/09 07:00:35;;;;;;;17.00;10.93;;;22.80;66.40;;;;;;5012226;28;20072;-76
2023/07/09 07:03:03;;;;;;;15.70;10.37;;;22.90;66.60;;;;;;5004126;28;20104;-76
2023/07/09 07:05:31;;;;;;;14.07;9.98;;;22.90;66.70;;;;;;5030075;28;20281;-75
2023/07/09 07:07:58;;;;;;;14.45;10.85;;;23.00;66.70;;;;;;5026495;28;20085;-75
2023/07/09 07:10:26;;;;;;;17.38;11.20;;;23.10;66.80;;;;;;5028979;28;20053;-76
2023/07/09 07:12:54;;;;;;;17.50;10.82;;;23.10;67.00;;;;;;5030876;28;20050;-75
2023/07/09 07:15:21;;;;;;;17.17;11.00;;;23.20;67.10;;;;;;5046741;28;20100;-75
2023/07/09 07:17:48;;;;;;;15.70;10.90;;;23.30;66.70;;;;;;5029464;28;20356;-76
2023/07/09 07:20:19;;;;;;;15.55;11.20;;;23.40;66.70;;;;;;5025166;28;20054;-78
2023/07/09 07:22:47;;;;;;;16.17;10.98;;;23.40;66.50;;;;;;5028934;28;20764;-77
2023/07/09 07:25:14;;;;;;;16.85;10.93;;;23.50;66.30;;;;;;5027433;28;20524;-76
2023/07/09 07:27:41;;;;;;;14.53;11.00;;;23.60;66.40;;;;;;5029469;28;20042;-75
2023/07/09 07:30:09;;;;;;;15.48;11.23;;;23.60;66.10;;;;;;5029191;28;20281;-75
2023/07/09 07:32:39;;;;;;;17.55;11.32;;;23.70;66.00;;;;;;5023714;28;20054;-75
2023/07/09 07:35:07;;;;;;;16.85;11.48;;;23.80;66.20;;;;;;5041681;28;20566;-75
2023/07/09 07:37:34;;;;;;;16.80;11.70;;;23.90;66.30;;;;;;5017543;28;20058;-76
2023/07/09 07:40:04;;;;;;;16.13;11.33;;;23.90;66.40;;;;;;5025818;28;20046;-77
2023/07/09 07:42:31;;;;;;;13.48;10.48;;;24.00;66.50;;;;;;5042059;28;20799;-76
2023/07/09 07:44:58;;;;;;;16.73;11.15;;;24.00;66.60;;;;;;5024370;28;20056;-76
2023/07/09 07:47:27;;;;;;;13.32;10.00;;;24.20;66.70;;;;;;5024685;28;20389;-76
2023/07/09 07:49:54;;;;;;;13.77;9.63;;;24.20;66.50;;;;;;5025179;28;20058;-76
2023/07/09 07:52:22;;;;;;;14.10;9.17;;;24.40;66.00;;;;;;5039894;28;20133;-77
2023/07/09 07:54:49;;;;;;;14.68;8.90;;;24.40;65.60;;;;;;5021575;28;20278;-74
2023/07/09 07:57:17;;;;;;;11.73;8.35;;;24.50;65.40;;;;;;5028839;28;20081;-75
2023/07/09 07:59:46;;;;;;;12.70;8.82;;;24.60;65.20;;;;;;5019427;28;20046;-74
2023/07/09 08:02:14;;;;;;;11.95;8.15;;;24.60;65.00;;;;;;5026227;28;20057;-75
2023/07/09 08:04:42;;;;;;;14.47;8.23;;;24.70;65.00;;;;;;5028515;28;20054;-74
2023/07/09 08:07:09;;;;;;;11.82;7.95;;;24.80;65.00;;;;;;5023121;28;20269;-74
2023/07/09 08:09:37;;;;;;;11.82;8.20;;;25.00;64.60;;;;;;5028615;28;20085;-74
2023/07/09 08:12:09;;;;;;;10.85;7.50;;;25.00;64.50;;;;;;5028210;28;20116;-74
2023/07/09 08:14:38;;;;;;;11.98;7.45;;;25.00;64.40;;;;;;5020132;28;20058;-74
2023/07/09 08:17:05;;;;;;;13.93;8.17;;;25.20;64.00;;;;;;5026053;28;20145;-75
2023/07/09 08:19:33;;;;;;;11.05;7.45;;;25.30;63.60;;;;;;5026818;28;20324;-74
2023/07/09 08:22:00;;;;;;;12.32;7.88;;;25.40;63.50;;;;;;5021196;28;20460;-75
2023/07/09 08:24:26;;;;;;;12.95;7.82;;;25.50;63.40;;;;;;5024890;28;20500;-74
2023/07/09 08:26:54;;;;;;;12.57;6.95;;;25.50;63.50;;;;;;5022368;28;20109;-74
2023/07/09 08:29:21;;;;;;;10.23;7.30;;;25.60;63.50;;;;;;5024157;28;20054;-74
2023/07/09 08:31:49;;;;;;;12.68;8.00;;;25.70;63.40;;;;;;5020997;28;20285;-74
2023/07/09 08:34:16;;;;;;;10.15;7.40;;;25.80;63.20;;;;;;5029583;28;20060;-74
2023/07/09 08:36:44;;;;;;;12.07;7.28;;;25.90;62.80;;;;;;5019036;28;20045;-75
2023/07/09 08:39:11;;;;;;;11.30;7.05;;;26.00;62.60;;;;;;5007067;28;20050;-74
2023/07/09 08:41:46;;;;;;;10.43;6.80;;;26.00;62.70;;;;;;5021622;28;20050;-74
2023/07/09 08:44:34;;;;;;;9.90;6.50;;;26.10;62.10;;;;;;5022118;28;20281;-75
2023/07/09 08:47:10;;;;;;;11.25;7.18;;;26.10;61.60;;;;;;5028290;28;20132;-74
2023/07/09 08:49:44;;;;;;;10.80;7.05;;;26.20;61.90;;;;;;5026815;28;20164;-74
2023/07/09 08:52:18;;;;;;;13.70;7.00;;;26.20;61.90;;;;;;5023160;28;20495;-74
2023/07/09 08:54:49;;;;;;;9.30;6.47;;;26.30;61.50;;;;;;5026251;28;20045;-75
2023/07/09 08:57:23;;;;;;;10.57;6.70;;;26.40;61.70;;;;;;5024173;28;20344;-74
2023/07/09 08:59:54;;;;;;;12.00;7.13;;;26.40;61.40;;;;;;5026389;28;20599;-74
2023/07/09 09:02:32;;;;;;;10.98;6.70;;;26.50;61.50;;;;;;5023675;28;20144;-75
2023/07/09 09:04:59;;;;;;;12.85;7.32;;;26.60;61.60;;;;;;5039310;28;20587;-73
2023/07/09 09:07:39;;;;;;;11.50;7.37;;;26.70;61.90;;;;;;5020730;28;20072;-74
2023/07/09 09:10:07;;;;;;;10.52;6.88;;;26.70;62.10;;;;;;5017296;28;20273;-74
2023/07/09 09:12:39;;;;;;;11.30;7.20;;;26.80;62.00;;;;;;5025164;28;20121;-74
2023/07/09 09:15:15;;;;;;;14.70;7.00;;;26.90;62.10;;;;;;5021844;28;20073;-74
2023/07/09 09:17:52;;;;;;;12.45;7.32;;;26.90;61.60;;;;;;5011791;28;20073;-74
2023/07/09 09:20:22;;;;;;;10.03;7.03;;;27.00;60.80;;;;;;5023246;28;20140;-76
2023/07/09 09:22:53;;;;;;;11.60;6.88;;;27.10;60.40;;;;;;5025460;28;20352;-76
2023/07/09 09:25:26;;;;;;;11.40;6.70;;;27.10;60.10;;;;;;5019820;28;20052;-77
2023/07/09 09:27:53;;;;;;;9.93;6.60;;;27.20;60.00;;;;;;5023967;28;20108;-76
2023/07/09 09:30:23;;;;;;;11.80;6.40;;;27.30;60.10;;;;;;5026457;28;20493;-76
2023/07/09 09:32:54;;;;;;;11.27;6.60;;;27.30;60.30;;;;;;5021714;28;20051;-76
2023/07/09 09:35:26;;;;;;;10.55;6.60;;;27.40;60.60;;;;;;5043506;28;20265;-76
2023/07/09 09:37:56;;;;;;;10.90;6.72;;;27.40;60.60;;;;;;5027133;28;20156;-76
2023/07/09 09:40:24;;;;;;;13.88;6.57;;;27.50;60.40;;;;;;5025389;28;20754;-76
2023/07/09 09:42:53;;;;;;;10.32;6.53;;;27.50;60.50;;;;;;5026285;28;20062;-75
2023/07/09 09:45:26;;;;;;;11.50;6.87;;;27.60;60.40;;;;;;5026666;28;20156;-76
2023/07/09 09:48:00;;;;;;;12.07;6.57;;;27.70;59.90;;;;;;5028963;28;20253;-76
2023/07/09 09:50:32;;;;;;;12.52;6.38;;;27.80;60.00;;;;;;5022491;28;20592;-76
2023/07/09 09:53:01;;;;;;;10.45;7.03;;;27.90;59.60;;;;;;5020118;28;20054;-76
2023/07/09 09:55:32;;;;;;;9.88;6.18;;;28.00;59.30;;;;;;5022781;28;20500;-76
2023/07/09 09:57:59;;;;;;;10.50;6.53;;;28.10;59.00;;;;;;5027657;28;20405;-77
2023/07/09 10:00:29;;;;;;;16.80;6.70;;;28.10;59.20;;;;;;5027246;28;20289;-77
2023/07/09 10:03:01;;;;;;;12.65;6.57;;;28.30;59.20;;;;;;5008781;28;20594;-76
2023/07/09 10:05:34;;;;;;;11.43;6.72;;;28.30;59.00;;;;;;5024455;28;20133;-76
2023/07/09 10:08:07;;;;;;;9.85;6.10;;;28.50;58.50;;;;;;5031042;28;20054;-76
2023/07/09 10:10:35;;;;;;;9.53;6.30;;;28.50;57.90;;;;;;5011972;28;20333;-76
2023/07/09 10:13:11;;;;;;;11.45;6.88;;;28.50;57.70;;;;;;5023222;28;20705;-76
2023/07/09 10:15:46;;;;;;;12.13;6.90;;;28.60;57.40;;;;;;5010553;28;20217;-76
2023/07/09 10:18:29;;;;;;;9.30;6.28;;;28.70;57.40;;;;;;5025920;28;20057;-76
2023/07/09 10:21:06;;;;;;;12.65;6.32;;;28.70;58.00;;;;;;5026004;28;20138;-77
2023/07/09 10:23:38;;;;;;;8.53;6.53;;;28.90;57.90;;;;;;5029575;28;20461;-77
2023/07/09 10:26:12;;;;;;;10.30;6.40;;;28.90;56.50;;;;;;5024738;28;20273;-77
2023/07/09 10:28:55;;;;;;;9.77;6.63;;;29.00;55.50;;;;;;5043485;28;20729;-77
2023/07/09 10:31:32;;;;;;;10.40;6.28;;;29.00;55.80;;;;;;5026773;28;20054;-78
2023/07/09 10:34:13;;;;;;;10.77;6.40;;;29.10;55.30;;;;;;5027935;28;20121;-77
2023/07/09 10:36:49;;;;;;;11.43;6.70;;;29.10;54.80;;;;;;5010367;28;20197;-78
2023/07/09 10:39:23;;;;;;;13.30;7.00;;;29.20;54.60;;;;;;5027137;28;20241;-78
2023/07/09 10:41:52;;;;;;;9.60;6.13;;;29.30;54.40;;;;;;5028892;28;20057;-78
2023/07/09 10:44:24;;;;;;;8.82;5.88;;;29.30;54.80;;;;;;5025762;28;20121;-78
2023/07/09 10:46:56;;;;;;;11.00;6.10;;;29.40;54.70;;;;;;5025411;28;20061;-78
2023/07/09 10:49:31;;;;;;;10.53;6.30;;;29.40;54.70;;;;;;5028384;28;20095;-79
2023/07/09 10:52:05;;;;;;;9.18;6.10;;;29.50;54.90;;;;;;5029390;28;20802;-77
2023/07/09 10:54:38;;;;;;;9.13;6.25;;;29.50;55.40;;;;;;5027130;28;20140;-78
2023/07/09 10:57:11;;;;;;;8.75;6.63;;;29.50;56.00;;;;;;5026451;28;20049;-77
2023/07/09 10:59:41;;;;;;;8.80;5.85;;;29.70;55.70;;;;;;5023017;28;20129;-76
2023/07/09 11:02:19;;;;;;;10.77;6.90;;;29.70;55.80;;;;;;5028854;28;20195;-77
2023/07/09 11:04:50;;;;;;;8.73;6.40;;;29.70;56.20;;;;;;5040406;28;20352;-78
2023/07/09 11:07:21;;;;;;;9.27;7.15;;;29.90;56.30;;;;;;5031436;28;20050;-78
2023/07/09 11:09:54;;;;;;;11.20;6.65;;;30.00;56.70;;;;;;5027891;28;20050;-77
2023/07/09 11:12:30;;;;;;;8.57;6.22;;;30.00;56.30;;;;;;5010466;28;20050;-75
2023/07/09 11:15:01;;;;;;;9.53;7.10;;;30.10;56.00;;;;;;5029466;28;20050;-76
2023/07/09 11:17:29;;;;;;;9.50;6.05;;;30.30;55.80;;;;;;5029291;28;20809;-76
2023/07/09 11:20:01;;;;;;;8.95;5.75;;;30.30;55.50;;;;;;5030624;28;20057;-76
2023/07/09 11:22:38;;;;;;;8.68;5.63;;;30.50;54.60;;;;;;5029632;28;20060;-76
2023/07/09 11:25:09;;;;;;;9.05;5.47;;;30.50;54.10;;;;;;5024320;28;20049;-76
2023/07/09 11:27:49;;;;;;;8.27;5.30;;;30.60;53.60;;;;;;5027086;28;20051;-77
2023/07/09 11:30:24;;;;;;;9.93;5.18;;;30.70;53.00;;;;;;5023789;28;20360;-75
2023/07/09 11:32:55;;;;;;;9.15;5.65;;;30.80;52.80;;;;;;5022421;28;20152;-74
2023/07/09 11:35:26;;;;;;;8.95;5.68;;;30.80;53.20;;;;;;5023503;28;20299;-74
2023/07/09 11:37:54;;;;;;;9.40;5.75;;;31.00;53.20;;;;;;5022424;28;20690;-75
2023/07/09 11:40:24;;;;;;;7.93;5.90;;;31.00;53.10;;;;;;5026344;28;20064;-74
2023/07/09 11:42:54;;;;;;;6.90;5.60;;;31.10;53.20;;;;;;5025824;28;20589;-77
2023/07/09 11:45:26;;;;;;;8.68;5.65;;;31.20;53.10;;;;;;5024173;28;20061;-77
2023/07/09 11:48:03;;;;;;;9.55;5.65;;;31.20;53.10;;;;;;5024428;28;20376;-77
2023/07/09 11:50:35;;;;;;;12.05;5.90;;;31.30;52.10;;;;;;5026196;28;20495;-76
2023/07/09 11:53:06;;;;;;;9.73;5.80;;;31.40;52.50;;;;;;5026310;28;20453;-76
2023/07/09 11:55:41;;;;;;;8.48;5.38;;;31.50;52.50;;;;;;5022742;28;20257;-77
2023/07/09 11:58:11;;;;;;;9.05;5.50;;;31.50;52.00;;;;;;5025176;28;20362;-77
2023/07/09 12:00:40;;;;;;;8.15;4.82;;;31.60;51.90;;;;;;5024247;28;20054;-76
2023/07/09 12:03:12;;;;;;;7.88;5.20;;;31.70;51.70;;;;;;5026711;28;20133;-75
2023/07/09 12:05:45;;;;;;;7.20;5.20;;;31.70;51.70;;;;;;5024888;28;20641;-77
2023/07/09 12:08:16;;;;;;;8.20;5.07;;;31.80;51.80;;;;;;5008987;28;20456;-76
2023/07/09 12:10:44;;;;;;;7.82;5.20;;;31.90;52.20;;;;;;5008869;28;20042;-76
2023/07/09 12:13:13;;;;;;;7.13;5.32;;;32.00;52.10;;;;;;5022991;28;20526;-76
2023/07/09 12:15:40;;;;;;;7.40;5.10;;;32.00;52.40;;;;;;5027652;28;20112;-76
2023/07/09 12:18:13;;;;;;;8.03;5.60;;;32.00;51.90;;;;;;5029383;28;20181;-80
2023/07/09 12:20:43;;;;;;;9.10;5.03;;;32.20;51.00;;;;;;5023800;28;20400;-81
2023/07/09 12:23:21;;;;;;;8.43;5.30;;;32.20;50.50;;;;;;5027169;28;20140;-81
2023/07/09 12:25:49;;;;;;;7.68;5.18;;;32.20;50.20;;;;;;5009358;28;20055;-81
2023/07/09 12:28:17;;;;;;;8.38;4.82;;;32.30;49.50;;;;;;4991011;28;20054;-82
2023/07/09 12:30:47;;;;;;;8.48;5.20;;;32.40;49.10;;;;;;4990875;28;20513;-81
2023/07/09 12:33:18;;;;;;;9.18;5.80;;;32.40;49.40;;;;;;5020675;28;20505;-81
2023/07/09 12:35:46;;;;;;;8.48;5.10;;;32.50;48.90;;;;;;5028790;28;20518;-82
2023/07/09 12:38:19;;;;;;;8.80;5.40;;;32.50;48.40;;;;;;5028959;28;20530;-81
2023/07/09 12:40:47;;;;;;;9.88;6.20;;;32.60;47.90;;;;;;5028821;28;20265;-81
2023/07/09 12:43:14;;;;;;;7.32;4.85;;;32.60;47.40;;;;;;5027261;28;20101;-81
2023/07/09 12:45:41;;;;;;;8.77;5.05;;;32.60;46.90;;;;;;5030255;28;20424;-81
2023/07/09 12:48:12;;;;;;;7.00;5.10;;;32.60;47.50;;;;;;5012282;28;20046;-81
2023/07/09 12:50:39;;;;;;;10.93;5.50;;;32.70;47.60;;;;;;5028585;28;20049;-81